createdAt,value
2022-08-20T00:00:00.396Z,0.00
2022-08-20T00:01:02.109Z,0.00
2022-08-20T00:02:00.474Z,0.00
2022-08-20T00:03:00.368Z,0.00
2022-08-20T00:04:01.684Z,0.00
2022-08-20T00:05:00.338Z,0.00
2022-08-20T00:06:00.336Z,0.00
2022-08-20T00:07:00.323Z,0.00
2022-08-20T00:08:00.313Z,0.00
2022-08-20T00:09:00.334Z,0.00
2022-08-20T00:10:00.302Z,0.00
2022-08-20T00:11:00.307Z,0.00
2022-08-20T00:12:00.272Z,0.00
2022-08-20T00:13:00.261Z,0.00
2022-08-20T00:14:00.278Z,0.00
2022-08-20T00:15:00.243Z,0.00
2022-08-20T00:16:00.232Z,0.00
2022-08-20T00:17:00.224Z,0.00
2022-08-20T00:18:00.212Z,0.00
2022-08-20T00:19:00.524Z,0.00
2022-08-20T00:20:00.196Z,0.00
2022-08-20T00:21:00.185Z,0.00
2022-08-20T00:22:00.172Z,0.00
2022-08-20T00:23:00.158Z,0.00
2022-08-20T00:24:00.167Z,0.00
2022-08-20T00:25:00.148Z,0.00
2022-08-20T00:26:00.137Z,0.00
2022-08-20T00:27:00.127Z,0.00
2022-08-20T00:28:00.120Z,0.00
2022-08-20T00:29:00.125Z,0.00
2022-08-20T00:30:00.106Z,0.00
2022-08-20T00:31:00.088Z,0.00
2022-08-20T00:32:00.078Z,0.00
2022-08-20T00:33:00.067Z,0.00
2022-08-20T00:34:00.089Z,0.00
2022-08-20T00:35:00.051Z,0.00
2022-08-20T00:36:00.038Z,0.00
2022-08-20T00:37:00.106Z,0.00
2022-08-20T00:38:00.835Z,0.00
2022-08-20T00:39:01.025Z,0.00
2022-08-20T00:40:00.063Z,0.00
2022-08-20T00:40:59.985Z,0.00
2022-08-20T00:41:59.973Z,0.00
2022-08-20T00:42:59.981Z,0.00
2022-08-20T00:44:00.245Z,0.00
2022-08-20T00:44:59.947Z,0.00
2022-08-20T00:45:59.947Z,0.00
2022-08-20T00:46:59.952Z,0.00
2022-08-20T00:47:59.928Z,0.00
2022-08-20T00:48:59.903Z,0.00
2022-08-20T00:50:00.895Z,0.00
2022-08-20T00:50:59.886Z,0.00
2022-08-20T00:51:59.891Z,0.00
2022-08-20T00:52:59.884Z,0.00
2022-08-20T00:53:59.855Z,0.00
2022-08-20T00:54:59.843Z,0.00
2022-08-20T00:55:59.838Z,0.00
2022-08-20T00:56:59.824Z,0.00
2022-08-20T00:58:01.295Z,0.00
2022-08-20T00:58:59.797Z,0.00
2022-08-20T00:59:59.795Z,0.00
2022-08-20T01:00:59.784Z,0.00
2022-08-20T01:01:59.805Z,0.00
2022-08-20T01:02:59.777Z,0.00
2022-08-20T01:03:59.760Z,0.00
2022-08-20T01:04:59.750Z,0.00
2022-08-20T01:05:59.741Z,0.00
2022-08-20T01:06:59.724Z,0.00
2022-08-20T01:07:59.734Z,0.00
2022-08-20T01:08:59.710Z,0.00
2022-08-20T01:09:59.697Z,0.00
2022-08-20T01:10:59.687Z,0.00
2022-08-20T01:11:59.682Z,0.00
2022-08-20T01:12:59.925Z,0.00
2022-08-20T01:13:59.658Z,0.00
2022-08-20T01:14:59.643Z,0.00
2022-08-20T01:15:59.641Z,0.00
2022-08-20T01:16:59.625Z,0.00
2022-08-20T01:17:59.633Z,0.00
2022-08-20T01:18:59.610Z,0.00
2022-08-20T01:19:59.598Z,0.00
2022-08-20T01:20:59.593Z,0.00
2022-08-20T01:21:59.579Z,0.00
2022-08-20T01:22:59.590Z,0.00
2022-08-20T01:23:59.559Z,0.00
2022-08-20T01:24:59.543Z,0.00
2022-08-20T01:25:59.546Z,0.00
2022-08-20T01:26:59.535Z,0.00
2022-08-20T01:27:59.674Z,0.00
2022-08-20T01:28:59.510Z,0.00
2022-08-20T01:29:59.500Z,0.00
2022-08-20T01:30:59.494Z,0.00
2022-08-20T01:31:59.488Z,0.00
2022-08-20T01:32:59.489Z,0.00
2022-08-20T01:33:59.462Z,0.00
2022-08-20T01:34:59.456Z,0.00
2022-08-20T01:35:59.434Z,0.00
2022-08-20T01:36:59.430Z,0.00
2022-08-20T01:37:59.432Z,0.00
2022-08-20T01:38:59.419Z,0.00
2022-08-20T01:39:59.455Z,0.00
2022-08-20T01:40:59.393Z,0.00
2022-08-20T01:41:59.388Z,0.00
2022-08-20T01:42:59.892Z,0.00
2022-08-20T01:43:59.376Z,0.00
2022-08-20T01:44:59.351Z,0.00
2022-08-20T01:45:59.335Z,0.00
2022-08-20T01:46:59.322Z,0.00
2022-08-20T01:47:59.324Z,0.00
2022-08-20T01:48:59.329Z,0.00
2022-08-20T01:49:59.319Z,0.00
2022-08-20T01:50:59.288Z,0.00
2022-08-20T01:51:59.281Z,0.00
2022-08-20T01:52:59.268Z,0.00
2022-08-20T01:53:59.289Z,0.00
2022-08-20T01:54:59.251Z,0.00
2022-08-20T01:55:59.241Z,0.00
2022-08-20T01:56:59.236Z,0.00
2022-08-20T01:57:59.220Z,0.00
2022-08-20T01:58:59.325Z,0.00
2022-08-20T01:59:59.206Z,0.00
2022-08-20T02:00:59.193Z,0.00
2022-08-20T02:01:59.229Z,0.00
2022-08-20T02:02:59.170Z,0.00
2022-08-20T02:03:59.175Z,0.00
2022-08-20T02:04:59.154Z,0.00
2022-08-20T02:05:59.140Z,0.00
2022-08-20T02:06:59.115Z,0.00
2022-08-20T02:07:59.112Z,0.00
2022-08-20T02:08:59.126Z,0.00
2022-08-20T02:09:59.103Z,0.00
2022-08-20T02:10:59.073Z,0.00
2022-08-20T02:11:59.078Z,0.00
2022-08-20T02:12:59.070Z,0.00
2022-08-20T02:13:59.073Z,0.00
2022-08-20T02:14:59.049Z,0.00
2022-08-20T02:15:59.036Z,0.00
2022-08-20T02:16:59.024Z,0.00
2022-08-20T02:17:59.025Z,0.00
2022-08-20T02:18:59.022Z,0.00
2022-08-20T02:19:58.997Z,0.00
2022-08-20T02:20:58.997Z,0.00
2022-08-20T02:21:58.985Z,0.00
2022-08-20T02:22:58.972Z,0.00
2022-08-20T02:23:58.982Z,0.00
2022-08-20T02:24:58.952Z,0.00
2022-08-20T02:25:58.940Z,0.00
2022-08-20T02:26:58.928Z,0.00
2022-08-20T02:27:58.916Z,0.00
2022-08-20T02:28:58.933Z,0.00
2022-08-20T02:29:58.899Z,0.00
2022-08-20T02:30:58.892Z,0.00
2022-08-20T02:32:32.250Z,0.00
2022-08-20T02:32:59.882Z,0.00
2022-08-20T02:34:30.790Z,0.00
2022-08-20T02:34:58.853Z,0.00
2022-08-20T02:35:58.845Z,0.00
2022-08-20T02:36:58.829Z,0.00
2022-08-20T02:37:58.823Z,0.00
2022-08-20T02:38:58.855Z,0.00
2022-08-20T02:39:58.858Z,0.00
2022-08-20T02:40:58.794Z,0.00
2022-08-20T02:41:58.789Z,0.00
2022-08-20T02:42:58.777Z,0.00
2022-08-20T02:43:58.782Z,0.00
2022-08-20T02:44:58.749Z,0.00
2022-08-20T02:45:58.744Z,0.00
2022-08-20T02:46:58.734Z,0.00
2022-08-20T02:47:58.955Z,0.00
2022-08-20T02:48:58.723Z,0.00
2022-08-20T02:49:58.702Z,0.00
2022-08-20T02:50:58.690Z,0.00
2022-08-20T02:51:58.696Z,0.00
2022-08-20T02:52:58.668Z,0.00
2022-08-20T02:53:58.674Z,0.00
2022-08-20T02:54:58.653Z,0.00
2022-08-20T02:55:58.639Z,0.00
2022-08-20T02:56:58.629Z,0.00
2022-08-20T02:57:59.517Z,0.00
2022-08-20T02:58:58.629Z,0.00
2022-08-20T02:59:58.598Z,0.00
2022-08-20T03:00:58.635Z,0.00
2022-08-20T03:02:00.492Z,0.00
2022-08-20T03:02:58.559Z,0.00
2022-08-20T03:03:58.581Z,0.00
2022-08-20T03:04:58.553Z,0.00
2022-08-20T03:05:58.535Z,0.00
2022-08-20T03:06:58.527Z,0.00
2022-08-20T03:07:58.612Z,0.00
2022-08-20T03:08:58.527Z,0.00
2022-08-20T03:09:58.501Z,0.00
2022-08-20T03:10:58.502Z,0.00
2022-08-20T03:11:58.486Z,0.00
2022-08-20T03:12:58.473Z,0.00
2022-08-20T03:13:58.479Z,0.00
2022-08-20T03:14:58.463Z,0.00
2022-08-20T03:15:59.172Z,0.00
2022-08-20T03:16:59.438Z,0.00
2022-08-20T03:17:58.424Z,0.00
2022-08-20T03:18:58.447Z,0.00
2022-08-20T03:19:58.401Z,0.00
2022-08-20T03:20:58.388Z,0.00
2022-08-20T03:21:58.388Z,0.00
2022-08-20T03:22:58.378Z,0.00
2022-08-20T03:23:58.383Z,0.00
2022-08-20T03:24:58.388Z,0.00
2022-08-20T03:25:58.341Z,0.00
2022-08-20T03:26:58.339Z,0.00
2022-08-20T03:27:58.551Z,0.00
2022-08-20T03:28:58.327Z,0.00
2022-08-20T03:29:58.303Z,0.00
2022-08-20T03:30:58.296Z,0.00
2022-08-20T03:31:58.284Z,0.00
2022-08-20T03:32:58.270Z,0.00
2022-08-20T03:33:58.273Z,0.00
2022-08-20T03:34:58.250Z,0.00
2022-08-20T03:35:58.244Z,0.00
2022-08-20T03:36:58.230Z,0.00
2022-08-20T03:37:58.287Z,0.00
2022-08-20T03:38:58.231Z,0.00
2022-08-20T03:39:58.251Z,0.00
2022-08-20T03:40:58.190Z,0.00
2022-08-20T03:41:58.182Z,0.00
2022-08-20T03:42:58.174Z,0.00
2022-08-20T03:43:58.185Z,0.00
2022-08-20T03:44:58.834Z,0.00
2022-08-20T03:45:58.145Z,0.00
2022-08-20T03:46:58.133Z,0.00
2022-08-20T03:47:58.372Z,0.00
2022-08-20T03:49:00.119Z,0.00
2022-08-20T03:49:58.106Z,0.00
2022-08-20T03:50:58.091Z,0.00
2022-08-20T03:51:58.639Z,0.00
2022-08-20T03:52:58.072Z,0.00
2022-08-20T03:53:58.079Z,0.00
2022-08-20T03:54:58.056Z,0.00
2022-08-20T03:56:02.087Z,0.00
2022-08-20T03:56:59.048Z,0.00
2022-08-20T03:57:58.368Z,0.00
2022-08-20T03:58:58.035Z,0.00
2022-08-20T03:59:58.488Z,0.00
2022-08-20T04:00:58.007Z,0.00
2022-08-20T04:01:58.037Z,0.00
2022-08-20T04:02:57.972Z,0.00
2022-08-20T04:03:57.978Z,0.00
2022-08-20T04:04:57.954Z,0.00
2022-08-20T04:05:57.943Z,0.00
2022-08-20T04:06:57.931Z,0.00
2022-08-20T04:08:00.048Z,0.00
2022-08-20T04:08:58.931Z,0.00
2022-08-20T04:09:57.903Z,0.00
2022-08-20T04:10:57.919Z,0.00
2022-08-20T04:11:57.912Z,0.00
2022-08-20T04:12:57.889Z,0.00
2022-08-20T04:13:57.902Z,0.00
2022-08-20T04:14:57.869Z,0.00
2022-08-20T04:15:57.864Z,0.00
2022-08-20T04:16:57.837Z,0.00
2022-08-20T04:17:58.062Z,0.00
2022-08-20T04:19:02.500Z,0.00
2022-08-20T04:19:58.807Z,0.00
2022-08-20T04:20:57.799Z,0.00
2022-08-20T04:21:57.789Z,0.00
2022-08-20T04:22:59.228Z,5.62
2022-08-20T04:23:57.782Z,5.62
2022-08-20T04:24:57.757Z,5.62
2022-08-20T04:25:57.747Z,5.62
2022-08-20T04:26:57.738Z,5.62
2022-08-20T04:27:57.882Z,5.62
2022-08-20T04:28:57.739Z,5.62
2022-08-20T04:29:57.703Z,5.62
2022-08-20T04:30:57.697Z,5.62
2022-08-20T04:31:57.687Z,5.62
2022-08-20T04:32:57.665Z,5.62
2022-08-20T04:33:57.689Z,5.62
2022-08-20T04:34:57.673Z,5.62
2022-08-20T04:35:57.645Z,5.62
2022-08-20T04:36:57.631Z,5.62
2022-08-20T04:37:57.666Z,5.62
2022-08-20T04:38:57.632Z,5.62
2022-08-20T04:39:57.649Z,5.62
2022-08-20T04:40:57.600Z,5.62
2022-08-20T04:41:57.585Z,5.62
2022-08-20T04:42:57.579Z,5.62
2022-08-20T04:43:57.586Z,5.62
2022-08-20T04:44:57.549Z,5.62
2022-08-20T04:45:57.544Z,5.62
2022-08-20T04:46:57.543Z,5.62
2022-08-20T04:47:57.754Z,5.62
2022-08-20T04:48:57.530Z,5.62
2022-08-20T04:49:57.562Z,5.62
2022-08-20T04:50:57.502Z,5.62
2022-08-20T04:51:57.490Z,5.62
2022-08-20T04:52:57.471Z,5.62
2022-08-20T04:53:57.491Z,5.62
2022-08-20T04:54:57.475Z,5.62
2022-08-20T04:55:57.467Z,5.62
2022-08-20T04:56:57.443Z,5.62
2022-08-20T04:57:57.587Z,5.62
2022-08-20T04:58:57.440Z,5.62
2022-08-20T04:59:59.464Z,5.62
2022-08-20T05:01:01.092Z,5.62
2022-08-20T05:01:57.387Z,5.62
2022-08-20T05:02:57.387Z,5.62
2022-08-20T05:03:57.398Z,5.62
2022-08-20T05:04:57.357Z,5.62
2022-08-20T05:05:57.345Z,11.25
2022-08-20T05:06:57.339Z,11.25
2022-08-20T05:07:57.395Z,11.25
2022-08-20T05:08:57.327Z,11.25
2022-08-20T05:09:57.305Z,11.25
2022-08-20T05:11:30.134Z,11.25
2022-08-20T05:11:58.293Z,11.25
2022-08-20T05:12:57.430Z,11.25
2022-08-20T05:13:57.288Z,11.25
2022-08-20T05:14:57.268Z,5.62
2022-08-20T05:15:57.247Z,5.62
2022-08-20T05:16:57.232Z,5.62
2022-08-20T05:17:57.495Z,5.62
2022-08-20T05:18:57.233Z,5.62
2022-08-20T05:19:57.210Z,0.00
2022-08-20T05:20:57.226Z,0.00
2022-08-20T05:21:57.187Z,0.00
2022-08-20T05:22:57.189Z,0.00
2022-08-20T05:23:57.192Z,0.00
2022-08-20T05:24:57.168Z,0.00
2022-08-20T05:25:57.153Z,0.00
2022-08-20T05:26:57.143Z,0.00
2022-08-20T05:27:57.213Z,0.00
2022-08-20T05:28:58.594Z,0.00
2022-08-20T05:29:57.107Z,5.62
2022-08-20T05:30:57.107Z,5.62
2022-08-20T05:31:57.092Z,5.62
2022-08-20T05:32:57.087Z,5.62
2022-08-20T05:33:57.109Z,5.62
2022-08-20T05:34:57.068Z,11.25
2022-08-20T05:35:57.052Z,11.25
2022-08-20T05:36:57.044Z,11.25
2022-08-20T05:37:57.205Z,11.25
2022-08-20T05:38:57.043Z,11.25
2022-08-20T05:39:57.036Z,11.25
2022-08-20T05:40:57.008Z,11.25
2022-08-20T05:41:56.992Z,16.88
2022-08-20T05:42:56.989Z,16.88
2022-08-20T05:43:56.993Z,16.88
2022-08-20T05:44:56.970Z,16.88
2022-08-20T05:45:56.977Z,16.88
2022-08-20T05:46:56.945Z,16.88
2022-08-20T05:47:56.939Z,16.88
2022-08-20T05:48:59.521Z,16.88
2022-08-20T05:49:56.916Z,16.88
2022-08-20T05:50:56.904Z,16.88
2022-08-20T05:51:56.893Z,16.88
2022-08-20T05:52:56.880Z,16.88
2022-08-20T05:53:58.014Z,16.88
2022-08-20T05:54:56.858Z,16.88
2022-08-20T05:55:56.854Z,16.88
2022-08-20T05:56:56.838Z,16.88
2022-08-20T05:57:56.913Z,16.88
2022-08-20T05:58:56.838Z,22.50
2022-08-20T05:59:56.813Z,22.50
2022-08-20T06:00:56.830Z,22.50
2022-08-20T06:01:56.798Z,22.50
2022-08-20T06:02:56.784Z,28.12
2022-08-20T06:03:56.798Z,28.12
2022-08-20T06:04:56.769Z,33.75
2022-08-20T06:05:56.755Z,33.75
2022-08-20T06:06:56.762Z,39.38
2022-08-20T06:07:57.955Z,39.38
2022-08-20T06:08:57.747Z,39.38
2022-08-20T06:09:56.723Z,39.38
2022-08-20T06:10:56.706Z,45.00
2022-08-20T06:11:59.078Z,45.00
2022-08-20T06:12:56.720Z,45.00
2022-08-20T06:13:56.690Z,50.62
2022-08-20T06:14:56.673Z,50.62
2022-08-20T06:15:56.666Z,56.25
2022-08-20T06:16:57.662Z,61.88
2022-08-20T06:17:58.533Z,61.88
2022-08-20T06:18:58.243Z,67.50
2022-08-20T06:19:56.616Z,73.12
2022-08-20T06:20:56.606Z,78.75
2022-08-20T06:21:56.601Z,84.38
2022-08-20T06:22:56.591Z,90.00
2022-08-20T06:24:00.117Z,95.62
2022-08-20T06:24:56.580Z,101.25
2022-08-20T06:25:56.558Z,106.88
2022-08-20T06:26:56.551Z,112.50
2022-08-20T06:27:56.643Z,118.12
2022-08-20T06:28:56.546Z,118.12
2022-08-20T06:29:56.521Z,123.75
2022-08-20T06:30:56.506Z,123.75
2022-08-20T06:31:56.513Z,123.75
2022-08-20T06:32:56.494Z,123.75
2022-08-20T06:33:56.506Z,118.12
2022-08-20T06:34:56.476Z,112.50
2022-08-20T06:35:56.468Z,112.50
2022-08-20T06:36:56.470Z,112.50
2022-08-20T06:37:56.580Z,112.50
2022-08-20T06:38:56.453Z,118.12
2022-08-20T06:39:56.448Z,123.75
2022-08-20T06:40:56.414Z,135.00
2022-08-20T06:41:56.410Z,140.62
2022-08-20T06:42:56.404Z,146.25
2022-08-20T06:43:56.406Z,151.88
2022-08-20T06:44:56.380Z,157.50
2022-08-20T06:45:56.695Z,163.12
2022-08-20T06:46:56.938Z,168.75
2022-08-20T06:47:56.521Z,174.38
2022-08-20T06:48:56.392Z,185.62
2022-08-20T06:49:56.333Z,185.62
2022-08-20T06:50:56.709Z,191.25
2022-08-20T06:51:56.312Z,196.88
2022-08-20T06:52:57.159Z,196.88
2022-08-20T06:53:57.116Z,191.25
2022-08-20T06:54:56.345Z,191.25
2022-08-20T06:55:56.448Z,191.25
2022-08-20T06:56:56.312Z,191.25
2022-08-20T06:57:56.328Z,191.25
2022-08-20T06:58:56.257Z,185.62
2022-08-20T06:59:56.233Z,185.62
2022-08-20T07:00:56.263Z,185.62
2022-08-20T07:01:56.242Z,185.62
2022-08-20T07:02:56.439Z,185.62
2022-08-20T07:03:56.316Z,191.25
2022-08-20T07:04:57.183Z,191.25
2022-08-20T07:05:56.168Z,191.25
2022-08-20T07:06:56.154Z,196.88
2022-08-20T07:07:56.149Z,196.88
2022-08-20T07:08:56.159Z,196.88
2022-08-20T07:09:56.135Z,196.88
2022-08-20T07:10:56.126Z,202.50
2022-08-20T07:11:56.116Z,202.50
2022-08-20T07:12:56.338Z,208.12
2022-08-20T07:13:56.118Z,208.12
2022-08-20T07:14:56.083Z,208.12
2022-08-20T07:15:56.084Z,213.75
2022-08-20T07:16:56.072Z,213.75
2022-08-20T07:18:00.741Z,219.38
2022-08-20T07:18:58.052Z,225.00
2022-08-20T07:19:56.035Z,230.62
2022-08-20T07:20:56.028Z,236.25
2022-08-20T07:21:56.020Z,241.88
2022-08-20T07:22:56.180Z,241.88
2022-08-20T07:23:56.012Z,247.50
2022-08-20T07:24:55.988Z,253.12
2022-08-20T07:25:56.013Z,258.75
2022-08-20T07:26:56.913Z,270.00
2022-08-20T07:27:55.961Z,275.62
2022-08-20T07:28:55.970Z,275.62
2022-08-20T07:29:55.932Z,281.25
2022-08-20T07:30:57.844Z,286.88
2022-08-20T07:31:55.921Z,292.50
2022-08-20T07:32:56.023Z,292.50
2022-08-20T07:33:55.919Z,298.12
2022-08-20T07:34:55.892Z,298.12
2022-08-20T07:35:55.889Z,298.12
2022-08-20T07:36:55.877Z,298.12
2022-08-20T07:37:55.870Z,298.12
2022-08-20T07:38:56.851Z,298.12
2022-08-20T07:39:55.898Z,303.75
2022-08-20T07:40:55.833Z,309.38
2022-08-20T07:41:56.627Z,309.38
2022-08-20T07:42:55.938Z,309.38
2022-08-20T07:43:55.828Z,315.00
2022-08-20T07:44:55.810Z,320.62
2022-08-20T07:45:55.796Z,320.62
2022-08-20T07:46:55.781Z,326.25
2022-08-20T07:47:55.771Z,337.50
2022-08-20T07:48:55.777Z,331.88
2022-08-20T07:49:55.756Z,343.12
2022-08-20T07:50:55.738Z,348.75
2022-08-20T07:51:55.733Z,337.50
2022-08-20T07:52:55.853Z,337.50
2022-08-20T07:53:55.730Z,354.38
2022-08-20T07:54:55.708Z,354.38
2022-08-20T07:55:58.667Z,365.62
2022-08-20T07:56:55.684Z,365.62
2022-08-20T07:57:55.672Z,365.62
2022-08-20T07:58:55.776Z,376.88
2022-08-20T07:59:55.656Z,371.25
2022-08-20T08:00:55.685Z,365.62
2022-08-20T08:01:55.632Z,382.50
2022-08-20T08:02:55.816Z,382.50
2022-08-20T08:03:55.631Z,399.38
2022-08-20T08:04:55.614Z,393.75
2022-08-20T08:05:55.604Z,399.38
2022-08-20T08:06:55.581Z,393.75
2022-08-20T08:07:55.578Z,393.75
2022-08-20T08:08:55.572Z,405.00
2022-08-20T08:09:55.591Z,416.25
2022-08-20T08:10:55.559Z,444.38
2022-08-20T08:11:55.537Z,444.38
2022-08-20T08:12:55.605Z,450.00
2022-08-20T08:13:55.544Z,461.25
2022-08-20T08:14:55.517Z,489.38
2022-08-20T08:15:55.500Z,495.00
2022-08-20T08:16:55.493Z,483.75
2022-08-20T08:17:55.483Z,483.75
2022-08-20T08:18:55.468Z,466.88
2022-08-20T08:19:55.473Z,472.50
2022-08-20T08:20:55.459Z,489.38
2022-08-20T08:21:55.438Z,495.00
2022-08-20T08:22:55.467Z,478.12
2022-08-20T08:23:55.440Z,489.38
2022-08-20T08:24:56.855Z,478.12
2022-08-20T08:25:55.402Z,455.62
2022-08-20T08:26:55.389Z,433.12
2022-08-20T08:27:55.383Z,399.38
2022-08-20T08:28:55.372Z,388.12
2022-08-20T08:29:55.382Z,388.12
2022-08-20T08:30:55.352Z,388.12
2022-08-20T08:31:55.339Z,365.62
2022-08-20T08:32:55.469Z,360.00
2022-08-20T08:34:21.238Z,365.62
2022-08-20T08:34:55.304Z,360.00
2022-08-20T08:35:55.293Z,360.00
2022-08-20T08:36:56.283Z,371.25
2022-08-20T08:37:55.281Z,376.88
2022-08-20T08:38:55.287Z,343.12
2022-08-20T08:39:55.285Z,343.12
2022-08-20T08:40:59.825Z,348.75
2022-08-20T08:41:55.235Z,354.38
2022-08-20T08:42:55.511Z,376.88
2022-08-20T08:43:55.235Z,399.38
2022-08-20T08:44:55.220Z,410.62
2022-08-20T08:45:55.203Z,421.88
2022-08-20T08:46:55.186Z,433.12
2022-08-20T08:47:55.180Z,433.12
2022-08-20T08:48:55.185Z,427.50
2022-08-20T08:49:55.166Z,433.12
2022-08-20T08:50:55.157Z,438.75
2022-08-20T08:51:55.149Z,455.62
2022-08-20T08:52:55.203Z,483.75
2022-08-20T08:53:55.132Z,523.12
2022-08-20T08:54:55.109Z,528.75
2022-08-20T08:55:55.094Z,534.38
2022-08-20T08:56:55.094Z,523.12
2022-08-20T08:57:55.081Z,517.50
2022-08-20T08:58:55.081Z,506.25
2022-08-20T09:00:04.356Z,506.25
2022-08-20T09:00:57.527Z,500.62
2022-08-20T09:01:57.211Z,495.00
2022-08-20T09:02:56.083Z,495.00
2022-08-20T09:03:55.031Z,495.00
2022-08-20T09:04:55.008Z,500.62
2022-08-20T09:05:54.990Z,478.12
2022-08-20T09:06:55.013Z,517.50
2022-08-20T09:07:54.976Z,517.50
2022-08-20T09:08:54.971Z,506.25
2022-08-20T09:09:54.971Z,523.12
2022-08-20T09:10:54.941Z,528.75
2022-08-20T09:11:54.926Z,506.25
2022-08-20T09:12:55.927Z,523.12
2022-08-20T09:13:54.916Z,500.62
2022-08-20T09:14:54.933Z,500.62
2022-08-20T09:15:54.899Z,523.12
2022-08-20T09:16:54.890Z,528.75
2022-08-20T09:17:55.139Z,528.75
2022-08-20T09:18:54.872Z,534.38
2022-08-20T09:19:54.874Z,534.38
2022-08-20T09:20:54.851Z,517.50
2022-08-20T09:21:54.842Z,483.75
2022-08-20T09:22:54.828Z,483.75
2022-08-20T09:23:54.814Z,489.38
2022-08-20T09:24:54.819Z,495.00
2022-08-20T09:25:54.799Z,528.75
2022-08-20T09:26:54.784Z,540.00
2022-08-20T09:27:54.771Z,528.75
2022-08-20T09:28:54.767Z,523.12
2022-08-20T09:29:54.769Z,528.75
2022-08-20T09:30:54.738Z,545.62
2022-08-20T09:31:54.736Z,511.88
2022-08-20T09:32:54.732Z,511.88
2022-08-20T09:33:54.717Z,562.50
2022-08-20T09:34:54.726Z,579.38
2022-08-20T09:35:54.702Z,568.12
2022-08-20T09:36:54.694Z,540.00
2022-08-20T09:37:54.683Z,483.75
2022-08-20T09:38:54.679Z,495.00
2022-08-20T09:39:54.743Z,416.25
2022-08-20T09:40:54.656Z,399.38
2022-08-20T09:41:54.650Z,399.38
2022-08-20T09:42:54.800Z,416.25
2022-08-20T09:43:54.631Z,421.88
2022-08-20T09:44:54.630Z,421.88
2022-08-20T09:45:54.612Z,421.88
2022-08-20T09:46:54.645Z,427.50
2022-08-20T09:47:56.658Z,427.50
2022-08-20T09:48:55.593Z,410.62
2022-08-20T09:49:54.587Z,393.75
2022-08-20T09:50:54.560Z,376.88
2022-08-20T09:51:54.548Z,348.75
2022-08-20T09:52:54.544Z,320.62
2022-08-20T09:53:54.529Z,309.38
2022-08-20T09:54:54.587Z,292.50
2022-08-20T09:55:54.509Z,281.25
2022-08-20T09:56:54.503Z,281.25
2022-08-20T09:57:54.493Z,292.50
2022-08-20T09:58:54.471Z,292.50
2022-08-20T09:59:54.489Z,298.12
2022-08-20T10:00:54.457Z,315.00
2022-08-20T10:01:54.482Z,331.88
2022-08-20T10:02:54.429Z,337.50
2022-08-20T10:03:54.426Z,343.12
2022-08-20T10:04:54.440Z,360.00
2022-08-20T10:05:54.412Z,371.25
2022-08-20T10:06:54.402Z,388.12
2022-08-20T10:07:54.395Z,461.25
2022-08-20T10:08:54.381Z,433.12
2022-08-20T10:09:54.387Z,433.12
2022-08-20T10:10:54.352Z,450.00
2022-08-20T10:11:54.354Z,455.62
2022-08-20T10:12:55.137Z,455.62
2022-08-20T10:13:55.332Z,472.50
2022-08-20T10:14:54.350Z,495.00
2022-08-20T10:15:54.315Z,511.88
2022-08-20T10:16:54.300Z,511.88
2022-08-20T10:17:54.292Z,534.38
2022-08-20T10:18:54.281Z,506.25
2022-08-20T10:19:54.292Z,472.50
2022-08-20T10:20:54.275Z,455.62
2022-08-20T10:21:54.254Z,438.75
2022-08-20T10:22:54.263Z,438.75
2022-08-20T10:23:54.229Z,450.00
2022-08-20T10:24:54.251Z,461.25
2022-08-20T10:25:54.206Z,472.50
2022-08-20T10:26:55.203Z,466.88
2022-08-20T10:27:54.190Z,461.25
2022-08-20T10:28:54.187Z,466.88
2022-08-20T10:29:54.190Z,461.25
2022-08-20T10:30:54.158Z,450.00
2022-08-20T10:31:54.153Z,438.75
2022-08-20T10:32:54.149Z,438.75
2022-08-20T10:33:54.133Z,500.62
2022-08-20T10:34:54.130Z,528.75
2022-08-20T10:35:59.737Z,573.75
2022-08-20T10:36:55.109Z,579.38
2022-08-20T10:37:54.093Z,579.38
2022-08-20T10:38:54.084Z,562.50
2022-08-20T10:39:54.157Z,556.88
2022-08-20T10:40:54.076Z,545.62
2022-08-20T10:41:54.061Z,523.12
2022-08-20T10:42:54.040Z,540.00
2022-08-20T10:43:54.038Z,545.62
2022-08-20T10:44:54.055Z,472.50
2022-08-20T10:45:54.023Z,472.50
2022-08-20T10:46:57.250Z,461.25
2022-08-20T10:47:54.000Z,433.12
2022-08-20T10:48:53.993Z,416.25
2022-08-20T10:49:53.998Z,427.50
2022-08-20T10:50:53.963Z,466.88
2022-08-20T10:51:53.962Z,461.25
2022-08-20T10:52:53.952Z,438.75
2022-08-20T10:53:53.941Z,506.25
2022-08-20T10:54:53.942Z,506.25
2022-08-20T10:55:53.922Z,495.00
2022-08-20T10:56:53.919Z,444.38
2022-08-20T10:57:53.909Z,466.88
2022-08-20T10:58:53.883Z,450.00
2022-08-20T10:59:53.918Z,444.38
2022-08-20T11:00:53.881Z,450.00
2022-08-20T11:01:53.895Z,489.38
2022-08-20T11:02:53.857Z,545.62
2022-08-20T11:03:53.844Z,573.75
2022-08-20T11:04:53.848Z,596.25
2022-08-20T11:05:53.822Z,613.12
2022-08-20T11:06:53.819Z,601.88
2022-08-20T11:07:56.533Z,630.00
2022-08-20T11:08:53.802Z,630.00
2022-08-20T11:09:53.796Z,596.25
2022-08-20T11:10:53.813Z,556.88
2022-08-20T11:11:53.797Z,523.12
2022-08-20T11:12:53.776Z,511.88
2022-08-20T11:13:53.755Z,511.88
2022-08-20T11:14:53.762Z,585.00
2022-08-20T11:15:53.739Z,596.25
2022-08-20T11:16:53.725Z,590.62
2022-08-20T11:17:53.703Z,545.62
2022-08-20T11:18:53.706Z,495.00
2022-08-20T11:19:53.713Z,472.50
2022-08-20T11:20:53.689Z,461.25
2022-08-20T11:21:53.674Z,461.25
2022-08-20T11:22:53.667Z,461.25
2022-08-20T11:23:53.663Z,472.50
2022-08-20T11:24:53.670Z,517.50
2022-08-20T11:25:53.660Z,517.50
2022-08-20T11:26:53.632Z,483.75
2022-08-20T11:27:53.637Z,517.50
2022-08-20T11:28:53.614Z,511.88
2022-08-20T11:29:53.622Z,500.62
2022-08-20T11:30:53.597Z,523.12
2022-08-20T11:31:53.585Z,534.38
2022-08-20T11:32:53.575Z,528.75
2022-08-20T11:33:53.571Z,466.88
2022-08-20T11:34:53.602Z,472.50
2022-08-20T11:35:53.548Z,472.50
2022-08-20T11:36:53.553Z,472.50
2022-08-20T11:37:53.533Z,478.12
2022-08-20T11:38:53.581Z,483.75
2022-08-20T11:39:53.571Z,478.12
2022-08-20T11:40:53.501Z,478.12
2022-08-20T11:41:55.228Z,483.75
2022-08-20T11:43:13.688Z,495.00
2022-08-20T11:44:20.262Z,511.88
2022-08-20T11:44:55.473Z,523.12
2022-08-20T11:45:53.463Z,573.75
2022-08-20T11:46:53.480Z,607.50
2022-08-20T11:47:53.436Z,528.75
2022-08-20T11:48:53.420Z,551.25
2022-08-20T11:49:53.435Z,556.88
2022-08-20T11:50:53.400Z,489.38
2022-08-20T11:51:53.396Z,472.50
2022-08-20T11:52:53.386Z,450.00
2022-08-20T11:53:53.376Z,427.50
2022-08-20T11:54:54.838Z,405.00
2022-08-20T11:55:54.366Z,376.88
2022-08-20T11:56:53.358Z,348.75
2022-08-20T11:57:53.386Z,348.75
2022-08-20T11:58:53.333Z,258.75
2022-08-20T11:59:53.340Z,219.38
2022-08-20T12:00:53.327Z,168.75
2022-08-20T12:02:03.259Z,146.25
2022-08-20T12:02:54.380Z,140.62
2022-08-20T12:03:53.282Z,123.75
2022-08-20T12:04:53.288Z,112.50
2022-08-20T12:05:53.271Z,106.88
2022-08-20T12:06:53.249Z,106.88
2022-08-20T12:07:53.250Z,106.88
2022-08-20T12:08:53.234Z,106.88
2022-08-20T12:09:53.261Z,112.50
2022-08-20T12:10:53.221Z,112.50
2022-08-20T12:11:53.213Z,118.12
2022-08-20T12:12:53.282Z,123.75
2022-08-20T12:13:53.192Z,129.38
2022-08-20T12:14:53.204Z,129.38
2022-08-20T12:15:53.185Z,135.00
2022-08-20T12:16:53.152Z,146.25
2022-08-20T12:17:53.151Z,157.50
2022-08-20T12:18:53.140Z,168.75
2022-08-20T12:19:53.146Z,174.38
2022-08-20T12:20:53.116Z,180.00
2022-08-20T12:21:53.109Z,191.25
2022-08-20T12:22:53.165Z,196.88
2022-08-20T12:23:53.092Z,208.12
2022-08-20T12:24:53.095Z,219.38
2022-08-20T12:25:53.068Z,225.00
2022-08-20T12:26:53.079Z,230.62
2022-08-20T12:27:53.046Z,236.25
2022-08-20T12:28:53.038Z,241.88
2022-08-20T12:29:53.040Z,241.88
2022-08-20T12:30:53.016Z,241.88
2022-08-20T12:31:53.013Z,241.88
2022-08-20T12:32:53.039Z,241.88
2022-08-20T12:33:52.988Z,236.25
2022-08-20T12:34:53.003Z,241.88
2022-08-20T12:35:52.970Z,247.50
2022-08-20T12:36:52.948Z,253.12
2022-08-20T12:37:52.954Z,253.12
2022-08-20T12:38:52.929Z,253.12
2022-08-20T12:39:53.010Z,253.12
2022-08-20T12:40:52.930Z,258.75
2022-08-20T12:41:52.906Z,264.38
2022-08-20T12:42:52.942Z,270.00
2022-08-20T12:43:52.879Z,281.25
2022-08-20T12:44:52.886Z,286.88
2022-08-20T12:45:52.884Z,292.50
2022-08-20T12:46:52.855Z,298.12
2022-08-20T12:47:52.849Z,298.12
2022-08-20T12:48:52.836Z,303.75
2022-08-20T12:49:52.844Z,309.38